createdAt,value
2018-07-08T00:03:34.493Z,95.80
2018-07-08T00:08:38.490Z,96.10
2018-07-08T00:13:42.483Z,95.70
2018-07-08T00:18:46.499Z,95.20
2018-07-08T00:23:50.495Z,95.40
2018-07-08T00:28:54.570Z,95.40
2018-07-08T00:33:58.564Z,95.60
2018-07-08T00:39:02.619Z,95.70
2018-07-08T00:44:07.188Z,96.10
2018-07-08T00:49:11.376Z,96.20
2018-07-08T00:54:15.496Z,96.40
2018-07-08T00:59:19.537Z,96.60
2018-07-08T01:04:23.520Z,96.80
2018-07-08T01:09:27.493Z,96.90
2018-07-08T01:14:31.518Z,96.80
2018-07-08T01:19:35.522Z,96.80
2018-07-08T01:24:39.531Z,96.90
2018-07-08T01:29:43.511Z,97.40
2018-07-08T01:34:47.578Z,97.80
2018-07-08T01:39:51.650Z,97.50
2018-07-08T01:44:55.656Z,98.30
2018-07-08T01:49:59.671Z,98.30
2018-07-08T01:55:03.679Z,97.50
2018-07-08T02:00:08.140Z,97.20
2018-07-08T02:05:12.135Z,97.40
2018-07-08T02:10:16.136Z,97.20
2018-07-08T02:15:20.167Z,97.40
2018-07-08T02:20:24.157Z,97.70
2018-07-08T02:25:28.148Z,98.00
2018-07-08T02:30:32.935Z,97.70
2018-07-08T02:35:36.927Z,98.00
2018-07-08T02:45:44.574Z,98.20
2018-07-08T02:55:52.205Z,98.90
2018-07-08T03:00:56.509Z,98.60
2018-07-08T03:06:00.484Z,98.60
2018-07-08T03:21:12.103Z,99.40
2018-07-08T03:26:16.084Z,99.90
2018-07-08T03:31:20.075Z,99.60
2018-07-08T03:36:24.081Z,99.40
2018-07-08T03:41:28.229Z,99.50
2018-07-08T03:46:32.212Z,99.60
2018-07-08T03:51:36.204Z,99.90
2018-07-08T03:56:40.187Z,99.90
2018-07-08T04:01:44.205Z,99.90
2018-07-08T04:06:48.212Z,99.90
2018-07-08T04:11:52.199Z,99.80
2018-07-08T04:16:56.246Z,99.60
2018-07-08T04:22:00.224Z,99.60
2018-07-08T04:27:04.450Z,99.50
2018-07-08T04:32:08.466Z,99.90
2018-07-08T04:37:12.447Z,99.90
2018-07-08T04:42:16.474Z,99.70
2018-07-08T04:52:24.139Z,99.30
2018-07-08T04:57:28.143Z,99.20
2018-07-08T05:02:32.557Z,99.90
2018-07-08T05:07:36.660Z,99.90
2018-07-08T05:12:40.656Z,99.90
2018-07-08T05:17:44.650Z,99.00
2018-07-08T05:22:48.635Z,98.30
2018-07-08T05:27:52.647Z,98.40
2018-07-08T05:32:56.738Z,98.40
2018-07-08T05:38:00.814Z,99.60
2018-07-08T05:43:04.869Z,99.20
2018-07-08T05:48:08.878Z,98.50
2018-07-08T05:53:12.889Z,97.70
2018-07-08T05:58:16.889Z,97.80
2018-07-08T06:03:20.946Z,98.30
2018-07-08T06:08:24.975Z,97.30
2018-07-08T06:13:28.980Z,96.50
2018-07-08T06:18:32.972Z,96.70
2018-07-08T06:23:36.977Z,98.00
2018-07-08T06:33:44.670Z,96.80
2018-07-08T06:38:48.650Z,95.90
2018-07-08T06:43:52.826Z,96.20
2018-07-08T06:48:56.842Z,95.60
2018-07-08T06:54:00.856Z,94.90
2018-07-08T06:59:04.904Z,95.20
2018-07-08T07:04:09.284Z,95.20
2018-07-08T07:09:13.316Z,93.50
2018-07-08T07:14:17.334Z,92.20
2018-07-08T07:19:21.334Z,92.80
2018-07-08T07:24:25.318Z,92.00
2018-07-08T07:29:29.308Z,91.20
2018-07-08T07:34:33.331Z,91.00
2018-07-08T07:44:40.947Z,87.50
2018-07-08T07:49:44.940Z,88.00
2018-07-08T07:54:48.996Z,83.90
2018-07-08T07:59:52.971Z,82.80
2018-07-08T08:04:57.009Z,82.70
2018-07-08T08:10:01.020Z,81.20
2018-07-08T08:15:05.024Z,79.90
2018-07-08T08:20:09.075Z,79.50
2018-07-08T08:25:13.090Z,76.60
2018-07-08T08:30:17.095Z,77.20
2018-07-08T08:35:21.108Z,79.10
2018-07-08T08:40:27.367Z,78.00
2018-07-08T08:45:31.396Z,77.30
2018-07-08T08:50:35.414Z,75.60
2018-07-08T08:55:39.465Z,75.20
2018-07-08T09:00:43.454Z,73.40
2018-07-08T09:05:47.526Z,71.60
2018-07-08T09:10:52.428Z,72.50
2018-07-08T09:15:56.391Z,69.80
2018-07-08T09:21:00.391Z,69.80
2018-07-08T09:26:04.409Z,70.10
2018-07-08T09:31:08.411Z,71.80
2018-07-08T09:36:12.492Z,70.50
2018-07-08T09:41:16.479Z,68.80
2018-07-08T09:46:20.530Z,70.40
2018-07-08T09:51:24.524Z,72.10
2018-07-08T09:56:28.547Z,73.10
2018-07-08T10:01:50.795Z,73.90
2018-07-08T10:06:55.263Z,72.30
2018-07-08T10:11:59.244Z,72.10
2018-07-08T10:17:03.218Z,70.00
2018-07-08T10:22:07.217Z,67.50
2018-07-08T10:27:36.278Z,67.30
2018-07-08T10:32:40.323Z,66.10
2018-07-08T10:37:44.320Z,65.80
2018-07-08T10:42:48.295Z,66.60
2018-07-08T10:47:52.283Z,66.80
2018-07-08T10:52:56.275Z,67.70
2018-07-08T10:58:00.295Z,65.70
2018-07-08T11:03:04.296Z,65.40
2018-07-08T11:08:08.337Z,65.40
2018-07-08T11:13:12.311Z,63.00
2018-07-08T11:18:16.351Z,63.00
2018-07-08T11:28:23.996Z,62.20
2018-07-08T11:33:27.987Z,62.50
2018-07-08T11:38:31.997Z,63.40
2018-07-08T11:43:35.985Z,60.80
2018-07-08T11:48:39.960Z,60.50
2018-07-08T11:53:43.969Z,60.00
2018-07-08T11:58:47.972Z,59.30
2018-07-08T12:03:51.973Z,57.90
2018-07-08T12:08:56.015Z,57.30
2018-07-08T12:14:00.031Z,58.10
2018-07-08T12:19:04.068Z,56.50
2018-07-08T12:24:08.044Z,56.20
2018-07-08T12:29:12.042Z,56.20
2018-07-08T12:34:16.043Z,57.10
2018-07-08T12:39:20.071Z,56.00
2018-07-08T12:44:24.215Z,55.80
2018-07-08T12:49:28.097Z,55.70
2018-07-08T12:54:32.129Z,54.90
2018-07-08T12:59:36.127Z,55.20
2018-07-08T13:04:40.155Z,54.80
2018-07-08T13:09:44.597Z,57.10
2018-07-08T13:14:48.592Z,53.90
2018-07-08T13:19:52.646Z,53.60
2018-07-08T13:24:56.616Z,53.10
2018-07-08T13:30:00.710Z,52.50
2018-07-08T13:35:04.711Z,52.20
2018-07-08T13:40:08.717Z,54.60
2018-07-08T13:45:12.750Z,53.00
2018-07-08T13:50:16.760Z,51.80
2018-07-08T13:55:20.772Z,51.70
2018-07-08T14:00:24.749Z,49.10
2018-07-08T14:05:28.770Z,52.70
2018-07-08T14:10:32.771Z,51.90
2018-07-08T14:15:36.760Z,51.60
2018-07-08T14:20:40.951Z,51.20
2018-07-08T14:25:44.768Z,50.70
2018-07-08T14:30:48.779Z,50.30
2018-07-08T14:35:52.791Z,50.90
2018-07-08T14:40:56.897Z,50.70
2018-07-08T14:46:00.899Z,50.50
2018-07-08T14:51:04.891Z,50.60
2018-07-08T14:56:08.895Z,50.40
2018-07-08T15:01:12.901Z,50.60
2018-07-08T15:06:16.896Z,51.30
2018-07-08T15:11:21.035Z,51.00
2018-07-08T15:16:25.094Z,51.50
2018-07-08T15:21:29.063Z,51.60
2018-07-08T15:26:33.096Z,51.60
2018-07-08T15:31:37.387Z,51.70
2018-07-08T15:36:41.404Z,51.80
2018-07-08T15:41:45.415Z,51.80
2018-07-08T15:46:49.417Z,53.00
2018-07-08T15:51:53.535Z,53.20
2018-07-08T16:02:01.163Z,54.00
2018-07-08T16:07:05.168Z,54.30
2018-07-08T16:12:09.159Z,54.40
2018-07-08T16:17:13.160Z,54.20
2018-07-08T16:27:20.776Z,54.90
2018-07-08T16:32:24.877Z,54.20
2018-07-08T16:37:28.851Z,54.10
2018-07-08T16:47:36.534Z,53.40
2018-07-08T16:52:40.524Z,53.80
2018-07-08T16:57:44.538Z,53.50
2018-07-08T17:02:49.298Z,55.30
2018-07-08T17:07:53.809Z,56.00
2018-07-08T17:12:57.843Z,57.90
2018-07-08T17:18:01.839Z,58.80
2018-07-08T17:23:05.829Z,58.90
2018-07-08T17:28:09.850Z,59.00
2018-07-08T17:33:13.932Z,59.80
2018-07-08T17:38:17.903Z,60.10
2018-07-08T17:43:22.208Z,60.60
2018-07-08T17:48:26.227Z,60.90
2018-07-08T17:53:31.313Z,61.60
2018-07-08T17:58:35.305Z,60.80
2018-07-08T18:03:39.294Z,61.20
2018-07-08T18:08:43.324Z,61.70
2018-07-08T18:13:47.360Z,62.60
2018-07-08T18:18:51.362Z,62.70
2018-07-08T18:23:55.346Z,63.10
2018-07-08T18:28:59.332Z,63.30
2018-07-08T18:34:03.334Z,63.70
2018-07-08T18:39:08.311Z,64.10
2018-07-08T18:44:12.330Z,65.50
2018-07-08T18:49:16.324Z,66.80
2018-07-08T18:54:20.551Z,68.40
2018-07-08T18:59:24.581Z,68.90
2018-07-08T19:04:28.992Z,69.50
2018-07-08T19:09:33.042Z,69.90
2018-07-08T19:14:37.076Z,70.40
2018-07-08T19:19:41.103Z,70.90
2018-07-08T19:24:45.157Z,71.30
2018-07-08T19:29:49.150Z,72.10
2018-07-08T19:34:53.159Z,73.20
2018-07-08T19:39:57.167Z,73.60
2018-07-08T19:45:01.271Z,74.50
2018-07-08T19:50:05.310Z,75.40
2018-07-08T19:55:09.324Z,76.60
2018-07-08T20:00:13.688Z,76.90
2018-07-08T20:05:17.700Z,78.40
2018-07-08T20:15:25.417Z,80.30
2018-07-08T20:20:29.460Z,80.30
2018-07-08T20:25:33.504Z,80.90
2018-07-08T20:30:37.521Z,81.60
2018-07-08T20:40:45.206Z,83.80
2018-07-08T20:45:49.192Z,83.30
2018-07-08T20:50:53.206Z,84.60
2018-07-08T20:55:57.255Z,85.90
2018-07-08T21:01:01.272Z,86.60
2018-07-08T21:11:08.921Z,88.20
2018-07-08T21:16:13.057Z,89.20
2018-07-08T21:21:17.031Z,90.10
2018-07-08T21:26:21.051Z,90.30
2018-07-08T21:31:25.148Z,90.80
2018-07-08T21:36:29.219Z,91.20
2018-07-08T21:41:33.353Z,91.60
2018-07-08T21:46:38.386Z,92.20
2018-07-08T21:51:42.416Z,92.50
2018-07-08T21:56:46.428Z,92.90
2018-07-08T22:12:09.842Z,94.10
2018-07-08T22:17:14.239Z,94.60
2018-07-08T22:22:18.271Z,95.00
2018-07-08T22:27:22.299Z,94.90
2018-07-08T22:32:26.292Z,95.20
2018-07-08T22:37:30.524Z,95.50
2018-07-08T22:42:34.521Z,95.90
2018-07-08T22:47:38.517Z,95.80
2018-07-08T22:52:42.546Z,96.30
2018-07-08T23:03:05.446Z,97.10
2018-07-08T23:08:09.468Z,96.90
2018-07-08T23:18:17.138Z,96.90
2018-07-08T23:23:21.144Z,97.00
2018-07-08T23:28:25.166Z,97.00
2018-07-08T23:43:36.909Z,97.50
2018-07-08T23:48:40.935Z,97.70
2018-07-08T23:53:44.927Z,98.00
2018-07-08T23:58:48.915Z,98.50
